Time;durP1;ratioP1;P1;durP2;ratioP2;P2;SDS_P1;SDS_P2;PMS_P1;PMS_P2;Temp;Humidity;BMP_temperature;BMP_pressure;BME280_temperature;BME280_humidity;BME280_pressure;Samples;Min_cycle;Max_cycle;Signal;HPM_P1;HPM_P2
2021/11/14 00:00:36;;;;;;;;;12.00;12.00;;;;;-147.17;100.00;49761.38;5026354;28;51216;-58
2021/11/14 00:03:02;;;;;;;;;13.75;13.75;;;;;-147.17;100.00;49745.63;5022444;28;51929;-58
2021/11/14 00:05:28;;;;;;;;;12.67;12.67;;;;;-147.17;100.00;49722.00;5017271;28;51277;-58
2021/11/14 00:07:53;;;;;;;;;11.67;11.67;;;;;-147.17;100.00;49718.06;5022874;28;51358;-58
2021/11/14 00:10:19;;;;;;;;;14.00;13.67;;;;;-147.17;100.00;49710.19;5027886;28;51801;-58
2021/11/14 00:12:45;;;;;;;;;13.75;13.50;;;;;-147.17;100.00;49733.81;5029978;28;52143;-57
2021/11/14 00:15:11;;;;;;;;;10.67;9.00;;;;;-147.17;100.00;49737.75;5025874;28;52946;-57
2021/11/14 00:17:38;;;;;;;;;13.67;13.00;;;;;-147.17;100.00;49720.03;5027634;28;53845;-58
2021/11/14 00:20:07;;;;;;;;;11.67;11.67;;;;;-147.17;100.00;49710.19;5026464;28;51228;-58
2021/11/14 00:22:32;;;;;;;;;14.00;12.00;;;;;-147.17;100.00;49729.88;5023296;28;51812;-58
2021/11/14 00:25:00;;;;;;;;;12.00;12.00;;;;;-147.17;100.00;49749.56;5024658;28;51299;-60
2021/11/14 00:27:27;;;;;;;;;12.67;12.67;;;;;-147.17;100.00;49769.25;5024267;28;51208;-57
2021/11/14 00:29:53;;;;;;;;;14.33;13.33;;;;;-147.17;100.00;49745.63;5023702;28;51084;-59
2021/11/14 00:32:18;;;;;;;;;14.25;14.25;;;;;-147.17;100.00;49702.31;5026454;28;52257;-57
2021/11/14 00:34:44;;;;;;;;;14.00;13.33;;;;;-147.17;100.00;49720.03;5020561;28;51626;-58
2021/11/14 00:37:09;;;;;;;;;15.67;12.00;;;;;-147.17;100.00;49718.06;5045151;28;51265;-58
2021/11/14 00:39:35;;;;;;;;;13.00;13.00;;;;;-147.17;100.00;49753.50;5019817;28;51165;-60
2021/11/14 00:42:00;;;;;;;;;14.33;14.00;;;;;-147.17;100.00;49737.75;5024281;28;52069;-57
2021/11/14 00:44:26;;;;;;;;;13.00;12.67;;;;;-147.17;100.00;49718.06;5028244;28;51021;-58
2021/11/14 00:46:51;;;;;;;;;9.67;9.33;;;;;-147.17;100.00;49725.94;5027546;28;51156;-59
2021/11/14 00:49:17;;;;;;;;;14.33;14.33;;;;;-147.17;100.00;49706.25;5015053;28;51142;-60
2021/11/14 00:51:42;;;;;;;;;12.33;11.00;;;;;-147.17;100.00;49718.06;5014585;28;51868;-59
2021/11/14 00:54:08;;;;;;;;;9.67;9.67;;;;;-147.17;100.00;49737.75;5015623;28;51004;-61
2021/11/14 00:56:34;;;;;;;;;13.67;12.00;;;;;-147.17;100.00;49722.00;5029663;28;51032;-60
2021/11/14 00:58:59;;;;;;;;;15.00;14.33;;;;;-147.17;100.00;49753.50;5024205;28;51144;-59
2021/11/14 01:01:26;;;;;;;;;12.00;10.67;;;;;-147.17;100.00;49702.31;5012838;28;53112;-58
2021/11/14 01:03:52;;;;;;;;;15.00;14.00;;;;;-147.17;100.00;49722.00;5017682;28;51136;-59
2021/11/14 01:06:18;;;;;;;;;12.67;11.33;;;;;-147.17;100.00;49755.47;5018114;28;51196;-58
2021/11/14 01:08:43;;;;;;;;;18.50;16.00;;;;;-147.17;100.00;49718.06;5025004;28;51289;-58
2021/11/14 01:11:10;;;;;;;;;12.33;11.00;;;;;-147.17;100.00;49706.25;5032994;28;51513;-57
2021/11/14 01:13:37;;;;;;;;;13.67;12.67;;;;;-147.17;100.00;49722.00;5025475;28;51192;-58
2021/11/14 01:16:04;;;;;;;;;12.33;10.33;;;;;-147.17;100.00;49745.63;5019949;28;51163;-59
2021/11/14 01:18:29;;;;;;;;;13.67;13.00;;;;;-147.17;100.00;49733.81;5026338;28;51160;-58
2021/11/14 01:20:58;;;;;;;;;11.00;9.67;;;;;-147.17;100.00;49753.50;5032238;28;51172;-58
2021/11/14 01:23:25;;;;;;;;;10.50;10.50;;;;;-147.17;100.00;49767.28;5014906;28;50959;-59
2021/11/14 01:25:51;;;;;;;;;9.00;9.00;;;;;-147.17;100.00;49727.91;5014376;28;51131;-58
2021/11/14 01:28:18;;;;;;;;;13.00;12.00;;;;;-147.17;100.00;49749.56;5025689;28;50900;-57
2021/11/14 01:30:47;;;;;;;;;14.33;12.67;;;;;-147.17;100.00;49725.94;5014426;28;51943;-58
2021/11/14 01:33:14;;;;;;;;;13.33;12.00;;;;;-147.17;100.00;49718.06;5029638;28;51185;-57
2021/11/14 01:35:41;;;;;;;;;14.67;14.33;;;;;-147.17;100.00;49741.69;5015600;28;51165;-58
2021/11/14 01:38:06;;;;;;;;;14.67;13.00;;;;;-147.17;100.00;49714.13;5013790;28;51334;-58
2021/11/14 01:40:40;;;;;;;;;11.67;11.00;;;;;-147.17;100.00;49725.94;5013029;28;53076;-58
2021/11/14 01:43:08;;;;;;;;;11.33;11.00;;;;;-147.17;100.00;49725.94;5019141;28;51117;-58
2021/11/14 01:45:34;;;;;;;;;11.00;9.33;;;;;-147.17;100.00;49733.81;5013797;28;51146;-59
2021/11/14 01:47:59;;;;;;;;;13.00;12.33;;;;;-147.17;100.00;49710.19;5022534;28;51201;-58
2021/11/14 01:50:25;;;;;;;;;12.00;12.00;;;;;-147.17;100.00;49706.25;5013437;28;51113;-58
2021/11/14 01:52:52;;;;;;;;;13.00;11.33;;;;;-147.17;100.00;49704.28;5016479;28;51038;-57
2021/11/14 01:55:23;;;;;;;;;14.00;13.00;;;;;-147.17;100.00;49718.06;5020513;28;50892;-60
2021/11/14 01:57:48;;;;;;;;;17.00;15.25;;;;;-147.17;100.00;49737.75;5013945;28;51037;-59
2021/11/14 02:00:19;;;;;;;;;15.00;14.50;;;;;-147.17;100.00;49704.28;4995427;28;51852;-59
2021/11/14 02:02:45;;;;;;;;;10.33;8.00;;;;;-147.17;100.00;49712.16;5025665;28;51244;-59
2021/11/14 02:05:11;;;;;;;;;6.00;6.00;;;;;-147.17;100.00;49690.50;5013560;28;51098;-58
2021/11/14 02:07:38;;;;;;;;;12.67;12.67;;;;;-147.17;100.00;49692.47;5012357;28;51372;-58
2021/11/14 02:10:05;;;;;;;;;9.67;8.00;;;;;-147.17;100.00;49737.75;5015265;28;52243;-58
2021/11/14 02:12:32;;;;;;;;;11.33;11.00;;;;;-147.17;100.00;49739.72;5022622;28;51012;-59
2021/11/14 02:14:58;;;;;;;;;14.00;12.00;;;;;-147.17;100.00;49725.94;5022862;28;51044;-61
2021/11/14 02:17:24;;;;;;;;;14.33;14.00;;;;;-147.17;100.00;49729.88;5025053;28;51150;-58
2021/11/14 02:19:52;;;;;;;;;11.33;11.33;;;;;-147.17;100.00;49745.63;5013305;28;51291;-58
2021/11/14 02:22:19;;;;;;;;;11.00;9.33;;;;;-147.17;100.00;49741.69;5019796;28;51066;-58
2021/11/14 02:24:44;;;;;;;;;9.67;9.00;;;;;-147.17;100.00;49729.88;5028210;28;51094;-58
2021/11/14 02:27:10;;;;;;;;;8.67;8.67;;;;;-147.17;100.00;49729.88;5034400;28;51136;-58
2021/11/14 02:29:36;;;;;;;;;11.00;9.33;;;;;-147.17;100.00;49747.59;5032661;28;51814;-57
2021/11/14 02:32:01;;;;;;;;;12.00;12.00;;;;;-147.17;100.00;49741.69;5032940;28;50964;-58
2021/11/14 02:34:27;;;;;;;;;8.33;8.33;;;;;-147.17;100.00;49735.78;5014661;28;51069;-58
2021/11/14 02:36:52;;;;;;;;;9.67;8.00;;;;;-147.17;100.00;49747.59;5012086;28;50953;-58
2021/11/14 02:39:18;;;;;;;;;12.67;11.33;;;;;-147.17;100.00;49706.25;5031618;28;53216;-57
2021/11/14 02:41:43;;;;;;;;;12.33;12.33;;;;;-147.17;100.00;49700.34;5022917;28;51158;-57
2021/11/14 02:44:09;;;;;;;;;10.33;10.33;;;;;-147.17;100.00;49723.97;5013592;28;51242;-57
2021/11/14 02:46:34;;;;;;;;;12.00;11.33;;;;;-147.17;100.00;49655.09;5011705;28;51159;-57
2021/11/14 02:48:59;;;;;;;;;10.33;9.33;;;;;-147.17;100.00;49731.84;5012666;28;51034;-58
2021/11/14 02:51:28;;;;;;;;;9.33;9.33;;;;;-147.17;100.00;49714.13;5013798;28;51002;-58
2021/11/14 02:53:54;;;;;;;;;11.67;11.33;;;;;-147.17;100.00;49698.38;5011637;28;51133;-58
2021/11/14 02:56:20;;;;;;;;;12.67;11.67;;;;;-147.17;100.00;49698.38;5016554;28;51110;-58
2021/11/14 02:58:46;;;;;;;;;12.67;10.67;;;;;-147.17;100.00;49698.38;5015722;28;53110;-57
2021/11/14 03:01:28;;;;;;;;;11.33;10.33;;;;;-147.17;100.00;49684.59;5013053;28;50926;-61
2021/11/14 03:03:55;;;;;;;;;12.67;12.00;;;;;-147.17;100.00;49741.69;5012646;28;51006;-58
2021/11/14 03:06:22;;;;;;;;;9.33;9.33;;;;;-147.17;100.00;49720.03;5012666;28;51068;-58
2021/11/14 03:08:48;;;;;;;;;9.33;9.33;;;;;-147.17;100.00;49720.03;5012469;28;51833;-58
2021/11/14 03:11:15;;;;;;;;;9.33;9.33;;;;;-147.17;100.00;49710.19;5012650;28;50885;-57
2021/11/14 03:13:41;;;;;;;;;8.33;8.00;;;;;-147.17;100.00;49745.63;5017161;28;51122;-58
2021/11/14 03:16:09;;;;;;;;;10.33;8.67;;;;;-147.17;100.00;49712.16;5011235;28;51348;-58
2021/11/14 03:18:35;;;;;;;;;12.67;12.67;;;;;-147.17;100.00;49741.69;5014093;28;51115;-58
2021/11/14 03:21:02;;;;;;;;;12.00;11.67;;;;;-147.17;100.00;49696.41;5021375;28;51050;-58
2021/11/14 03:23:28;;;;;;;;;11.00;9.67;;;;;-147.17;100.00;49710.19;5028457;28;51300;-58
2021/11/14 03:25:54;;;;;;;;;11.33;11.33;;;;;-147.17;100.00;49674.75;5033396;28;51228;-62
2021/11/14 03:28:21;;;;;;;;;11.67;9.00;;;;;-147.17;100.00;49718.06;5035266;28;52225;-58
2021/11/14 03:30:50;;;;;;;;;12.00;11.00;;;;;-147.17;100.00;49694.44;5026619;28;50979;-59
2021/11/14 03:33:15;;;;;;;;;12.33;11.33;;;;;-147.17;100.00;49718.06;5028090;28;51139;-58
2021/11/14 03:35:56;;;;;;;;;10.00;8.33;;;;;-147.17;100.00;49700.34;5014772;28;51261;-59
2021/11/14 03:38:27;;;;;;;;;11.33;11.33;;;;;-147.17;100.00;49737.75;5016213;28;51133;-59
2021/11/14 03:40:52;;;;;;;;;8.33;8.33;;;;;-147.17;100.00;49741.69;5015996;28;50952;-57
2021/11/14 03:43:18;;;;;;;;;8.67;8.00;;;;;-147.17;100.00;49723.97;5023782;28;51084;-58
2021/11/14 03:45:44;;;;;;;;;7.67;6.67;;;;;-147.17;100.00;49718.06;5016584;28;51221;-58
2021/11/14 03:48:11;;;;;;;;;11.00;11.00;;;;;-147.17;100.00;49700.34;5027199;28;52034;-58
2021/11/14 03:50:36;;;;;;;;;11.00;8.00;;;;;-147.17;100.00;49712.16;5015823;28;50975;-58
2021/11/14 03:53:03;;;;;;;;;12.33;12.00;;;;;-147.17;100.00;49718.06;5030252;28;51177;-58
2021/11/14 03:55:29;;;;;;;;;8.67;7.33;;;;;-147.17;100.00;49712.16;5034294;28;51274;-58
2021/11/14 03:57:55;;;;;;;;;10.67;10.67;;;;;-147.17;100.00;49737.75;5015209;28;51377;-58
2021/11/14 04:00:25;;;;;;;;;11.00;11.00;;;;;-147.17;100.00;49773.19;5015475;28;51151;-58
2021/11/14 04:02:54;;;;;;;;;8.00;7.33;;;;;-147.17;100.00;49718.06;5022672;28;51144;-57
2021/11/14 04:05:21;;;;;;;;;8.00;8.00;;;;;-147.17;100.00;49716.09;5015553;28;50984;-58
2021/11/14 04:07:47;;;;;;;;;7.67;7.67;;;;;-147.17;100.00;49696.41;5015241;28;51904;-58
2021/11/14 04:10:13;;;;;;;;;8.67;8.67;;;;;-147.17;100.00;49735.78;5015751;28;51028;-57
2021/11/14 04:12:39;;;;;;;;;12.67;11.67;;;;;-147.17;100.00;49725.94;5020471;28;51146;-58
2021/11/14 04:15:07;;;;;;;;;10.00;9.00;;;;;-147.17;100.00;49733.81;5025838;28;50889;-58
2021/11/14 04:17:33;;;;;;;;;9.67;8.67;;;;;-147.17;100.00;49749.56;5015235;28;53388;-58
2021/11/14 04:19:59;;;;;;;;;10.33;9.33;;;;;-147.17;100.00;49737.75;5014318;28;51167;-58
2021/11/14 04:22:24;;;;;;;;;8.00;7.67;;;;;-147.17;100.00;49747.59;5015090;28;51791;-58
2021/11/14 04:24:49;;;;;;;;;11.67;11.33;;;;;-147.17;100.00;49729.88;5043871;28;51181;-58
2021/11/14 04:27:15;;;;;;;;;11.33;10.33;;;;;-147.17;100.00;49733.81;5018542;28;52986;-58
2021/11/14 04:29:40;;;;;;;;;7.00;7.00;;;;;-147.17;100.00;49720.03;5035074;28;50854;-58
2021/11/14 04:32:06;;;;;;;;;5.67;5.67;;;;;-147.17;100.00;49725.94;5035255;28;51078;-58
2021/11/14 04:34:31;;;;;;;;;9.00;7.67;;;;;-147.17;100.00;49735.78;5020825;28;51319;-58
2021/11/14 04:36:57;;;;;;;;;12.00;11.00;;;;;-147.17;100.00;49718.06;5014897;28;50913;-58
2021/11/14 04:39:22;;;;;;;;;11.33;8.67;;;;;-147.17;100.00;49769.25;5019799;28;50959;-57
2021/11/14 04:41:48;;;;;;;;;14.00;13.00;;;;;-147.17;100.00;49722.00;5021570;28;51185;-58
2021/11/14 04:44:13;;;;;;;;;10.33;10.33;;;;;-147.17;100.00;49759.41;5020517;28;51058;-58
2021/11/14 04:46:38;;;;;;;;;9.67;8.00;;;;;-147.17;100.00;49714.13;5013513;28;52863;-58
2021/11/14 04:49:04;;;;;;;;;9.67;9.67;;;;;-147.17;100.00;49729.88;5015207;28;51000;-58
2021/11/14 04:51:29;;;;;;;;;11.33;11.33;;;;;-147.17;100.00;49718.06;5015483;28;51024;-58
2021/11/14 04:53:55;;;;;;;;;11.00;11.00;;;;;-147.17;100.00;49753.50;5022304;28;51464;-58
2021/11/14 04:56:21;;;;;;;;;13.67;12.00;;;;;-147.17;100.00;49741.69;5014761;28;52195;-58
2021/11/14 04:58:47;;;;;;;;;11.33;9.33;;;;;-147.17;100.00;49741.69;5014609;28;51079;-58
2021/11/14 05:01:12;;;;;;;;;11.00;9.67;;;;;-147.17;100.00;49729.88;5014905;28;51003;-58
2021/11/14 05:03:37;;;;;;;;;11.00;10.00;;;;;-147.17;100.00;49759.41;5022432;28;51331;-58
2021/11/14 05:06:04;;;;;;;;;11.67;11.67;;;;;-147.17;100.00;49761.38;5014382;28;51103;-59
2021/11/14 05:08:30;;;;;;;;;8.67;8.67;;;;;-147.17;100.00;49749.56;5015062;28;51109;-59
2021/11/14 05:10:55;;;;;;;;;13.00;12.00;;;;;-147.17;100.00;49747.59;5014800;28;51114;-58
2021/11/14 05:13:21;;;;;;;;;11.00;9.33;;;;;-147.17;100.00;49733.81;5018033;28;51328;-56
2021/11/14 05:15:46;;;;;;;;;11.33;8.67;;;;;-147.17;100.00;49723.97;5018340;28;52679;-56
2021/11/14 05:18:12;;;;;;;;;13.33;11.00;;;;;-147.17;100.00;49733.81;5014774;28;51000;-57
2021/11/14 05:20:38;;;;;;;;;11.67;10.00;;;;;-147.17;100.00;49725.94;5014529;28;50975;-56
2021/11/14 05:23:04;;;;;;;;;12.00;11.67;;;;;-147.17;100.00;49725.94;5022104;28;51252;-56
2021/11/14 05:25:30;;;;;;;;;9.67;9.00;;;;;-147.17;100.00;49723.97;5018227;28;52570;-58
2021/11/14 05:27:56;;;;;;;;;12.00;12.00;;;;;-147.17;100.00;49745.63;5030411;28;51226;-58
2021/11/14 05:30:22;;;;;;;;;12.33;11.33;;;;;-147.17;100.00;49753.50;5022739;28;51104;-58
2021/11/14 05:32:47;;;;;;;;;10.67;10.67;;;;;-147.17;100.00;49729.88;5022848;28;51232;-57
2021/11/14 05:35:13;;;;;;;;;13.33;12.00;;;;;-147.17;100.00;49714.13;5025051;28;51847;-58
2021/11/14 05:37:38;;;;;;;;;10.00;10.00;;;;;-147.17;100.00;49710.19;5022302;28;51051;-57
2021/11/14 05:40:06;;;;;;;;;10.00;10.00;;;;;-147.17;100.00;49698.38;5014350;28;51220;-58
2021/11/14 05:42:32;;;;;;;;;8.00;8.00;;;;;-147.17;100.00;49725.94;5019108;28;51073;-58
2021/11/14 05:44:58;;;;;;;;;12.00;10.67;;;;;-147.17;100.00;49670.81;5017693;28;51006;-58
2021/11/14 05:47:25;;;;;;;;;9.33;9.33;;;;;-147.17;100.00;49708.22;5018572;28;51020;-58
2021/11/14 05:49:51;;;;;;;;;7.00;6.67;;;;;-147.17;100.00;49729.88;5013731;28;51064;-58
2021/11/14 05:52:16;;;;;;;;;9.67;8.00;;;;;-147.17;100.00;49710.19;5020665;28;51559;-58
2021/11/14 05:54:41;;;;;;;;;12.00;11.00;;;;;-147.17;100.00;49706.25;5042527;28;51860;-58
2021/11/14 05:57:07;;;;;;;;;13.00;13.00;;;;;-147.17;100.00;49722.00;5014006;28;51089;-58
2021/11/14 06:02:07;;;;;;;;;12.67;12.67;;;;;-147.17;100.00;49710.19;5015200;28;51056;-57
2021/11/14 06:04:39;;;;;;;;;11.00;11.00;;;;;-147.17;100.00;49718.06;5014586;28;51930;-57
2021/11/14 06:07:05;;;;;;;;;11.00;11.00;;;;;-147.17;100.00;49718.06;5013793;28;50888;-58
2021/11/14 06:09:30;;;;;;;;;9.33;8.00;;;;;-147.17;100.00;49706.25;5012331;28;50976;-58
2021/11/14 06:11:56;;;;;;;;;12.33;10.00;;;;;-147.17;100.00;49684.59;5014515;28;50939;-58
2021/11/14 06:14:21;;;;;;;;;14.00;13.33;;;;;-147.17;100.00;49686.56;5013793;28;52225;-58
2021/11/14 06:16:47;;;;;;;;;8.33;8.33;;;;;-147.17;100.00;49674.75;5018479;28;51056;-58
2021/11/14 06:19:12;;;;;;;;;11.00;9.67;;;;;-147.17;100.00;49680.66;5013396;28;51019;-57
2021/11/14 06:21:38;;;;;;;;;10.67;10.67;;;;;-147.17;100.00;49690.50;5016536;28;51176;-57
2021/11/14 06:24:04;;;;;;;;;11.33;8.00;;;;;-147.17;100.00;49686.56;5028221;28;51358;-57
2021/11/14 06:26:29;;;;;;;;;11.33;11.33;;;;;-147.17;100.00;49684.59;5022922;28;51012;-58
2021/11/14 06:28:54;;;;;;;;;7.00;6.00;;;;;-147.17;100.00;49657.06;5025529;28;51079;-56
2021/11/14 06:31:20;;;;;;;;;7.67;7.00;;;;;-147.17;100.00;49698.38;5012628;28;51099;-57
2021/11/14 06:33:45;;;;;;;;;10.67;8.00;;;;;-147.17;100.00;49696.41;5022844;28;52753;-58
2021/11/14 06:36:11;;;;;;;;;7.00;6.67;;;;;-147.17;100.00;49686.56;5018879;28;51075;-58
2021/11/14 06:38:36;;;;;;;;;9.67;8.00;;;;;-147.17;100.00;49664.91;5013231;28;50972;-57
2021/11/14 06:41:02;;;;;;;;;9.00;7.67;;;;;-147.17;100.00;49688.53;5012215;28;50968;-58
2021/11/14 06:43:28;;;;;;;;;9.67;8.00;;;;;-147.17;100.00;49690.50;5021200;28;52087;-58
2021/11/14 06:45:54;;;;;;;;;9.00;7.00;;;;;-147.17;100.00;49678.69;5012234;28;51079;-58
2021/11/14 06:48:19;;;;;;;;;6.33;6.33;;;;;-147.17;100.00;49690.50;5013014;28;50925;-57
2021/11/14 06:50:45;;;;;;;;;8.00;8.00;;;;;-147.17;100.00;49706.25;5020984;28;51344;-58
2021/11/14 06:53:10;;;;;;;;;7.00;7.00;;;;;-147.17;100.00;49712.16;5027306;28;51863;-58
2021/11/14 06:55:35;;;;;;;;;6.67;6.67;;;;;-147.17;100.00;49680.66;5012017;28;51008;-58
2021/11/14 06:58:01;;;;;;;;;9.33;8.67;;;;;-147.17;100.00;49682.63;5011506;28;51559;-57
2021/11/14 07:00:28;;;;;;;;;10.00;10.00;;;;;-147.17;100.00;49733.81;5012630;28;51206;-58
2021/11/14 07:02:54;;;;;;;;;7.33;6.33;;;;;-147.17;100.00;49706.25;5017704;28;51167;-58
2021/11/14 07:05:19;;;;;;;;;7.00;6.00;;;;;-147.17;100.00;49698.38;5020684;28;51099;-58
2021/11/14 07:07:46;;;;;;;;;7.67;6.67;;;;;-147.17;100.00;49702.31;5012484;28;50968;-58
2021/11/14 07:10:13;;;;;;;;;8.00;6.33;;;;;-147.17;100.00;49678.69;5011588;28;50984;-58
2021/11/14 07:12:39;;;;;;;;;7.00;7.00;;;;;-147.17;100.00;49710.19;5012372;28;51935;-58
2021/11/14 07:15:07;;;;;;;;;7.00;7.00;;;;;-147.17;100.00;49690.50;5023793;28;51304;-58
2021/11/14 07:17:32;;;;;;;;;8.00;8.00;;;;;-147.17;100.00;49692.47;5011265;28;51150;-58
2021/11/14 07:20:00;;;;;;;;;8.00;7.67;;;;;-147.17;100.00;49723.97;5011646;28;51495;-58
2021/11/14 07:22:26;;;;;;;;;7.33;7.00;;;;;-147.17;100.00;49722.00;5022853;28;51312;-58
2021/11/14 07:24:51;;;;;;;;;8.67;8.00;;;;;-147.17;100.00;49694.44;5012936;28;51094;-58
2021/11/14 07:27:17;;;;;;;;;5.00;5.00;;;;;-147.17;100.00;49706.25;5017193;28;51610;-58
2021/11/14 07:29:46;;;;;;;;;8.00;7.00;;;;;-147.17;100.00;49668.84;5032393;28;51089;-58
2021/11/14 07:32:11;;;;;;;;;6.33;6.33;;;;;-147.17;100.00;49718.06;5030577;28;53628;-57
2021/11/14 07:34:37;;;;;;;;;10.33;8.67;;;;;-147.17;100.00;49698.38;5025653;28;51117;-58
2021/11/14 07:37:03;;;;;;;;;6.33;6.00;;;;;-147.17;100.00;49680.66;5019773;28;51206;-57
2021/11/14 07:39:29;;;;;;;;;11.67;8.33;;;;;-147.17;100.00;49688.53;5010945;28;51576;-57
2021/11/14 07:41:55;;;;;;;;;6.33;6.00;;;;;-147.17;100.00;49710.19;5018656;28;51850;-59
2021/11/14 07:44:20;;;;;;;;;9.00;9.00;;;;;-147.17;100.00;49680.66;5023539;28;51208;-57
2021/11/14 07:46:46;;;;;;;;;8.00;8.00;;;;;-147.17;100.00;49743.66;5018544;28;51267;-57
2021/11/14 07:49:12;;;;;;;;;6.00;6.00;;;;;-147.17;100.00;49714.13;5020067;28;51324;-58
2021/11/14 07:51:37;;;;;;;;;10.33;9.00;;;;;-147.17;100.00;49708.22;5017202;28;54232;-58
2021/11/14 07:54:04;;;;;;;;;9.67;9.67;;;;;-147.17;100.00;49698.38;5044325;28;51118;-58
2021/11/14 07:56:30;;;;;;;;;6.33;6.00;;;;;-147.17;100.00;49672.78;5015175;28;51032;-57
2021/11/14 07:58:56;;;;;;;;;7.67;7.67;;;;;-147.17;100.00;49714.13;5027686;28;50990;-64
2021/11/14 08:01:21;;;;;;;;;8.00;8.00;;;;;-147.17;100.00;49737.75;5012261;28;50967;-60
2021/11/14 08:03:47;;;;;;;;;7.33;6.67;;;;;-147.17;100.00;49688.53;5017682;28;51189;-56
2021/11/14 08:06:12;;;;;;;;;9.00;9.00;;;;;-147.17;100.00;49694.44;5012376;28;51412;-58
2021/11/14 08:08:40;;;;;;;;;9.67;9.67;;;;;-147.17;100.00;49712.16;5025319;28;51037;-58
2021/11/14 08:11:05;;;;;;;;;13.33;13.33;;;;;-147.17;100.00;49696.41;5012369;28;52613;-58
2021/11/14 08:13:30;;;;;;;;;8.00;8.00;;;;;-147.17;100.00;49686.56;5022669;28;51025;-62
2021/11/14 08:15:56;;;;;;;;;11.67;11.33;;;;;-147.17;100.00;49708.22;5021889;28;51140;-60
2021/11/14 08:18:22;;;;;;;;;8.67;8.00;;;;;-147.17;100.00;49694.44;5001672;28;51145;-58
2021/11/14 08:20:49;;;;;;;;;8.00;8.00;;;;;-147.17;100.00;49704.28;5016067;28;52443;-58
2021/11/14 08:23:15;;;;;;;;;12.00;10.67;;;;;-147.17;100.00;49694.44;5021761;28;51004;-57
2021/11/14 08:25:42;;;;;;;;;8.33;8.00;;;;;-147.17;100.00;49682.63;5004678;28;51180;-57
2021/11/14 08:28:08;;;;;;;;;11.00;9.67;;;;;-147.17;100.00;49702.31;5034801;28;51249;-58
2021/11/14 08:30:34;;;;;;;;;12.67;9.67;;;;;-147.17;100.00;49688.53;5034795;28;51201;-58
2021/11/14 08:32:59;;;;;;;;;10.00;9.33;;;;;-147.17;100.00;49725.94;5030120;28;51137;-58
2021/11/14 08:35:25;;;;;;;;;8.67;8.00;;;;;-147.17;100.00;49737.75;5027549;28;51290;-58
2021/11/14 08:37:56;;;;;;;;;11.00;9.33;;;;;-147.17;100.00;49716.09;5022157;28;51265;-58
2021/11/14 08:40:23;;;;;;;;;10.33;8.67;;;;;-147.17;100.00;49682.63;5033173;28;51268;-58
2021/11/14 08:42:48;;;;;;;;;7.00;6.00;;;;;-147.17;100.00;49702.31;5032958;28;51045;-59
2021/11/14 08:45:13;;;;;;;;;7.33;7.33;;;;;-147.17;100.00;49682.63;5033719;28;51524;-58
2021/11/14 08:47:39;;;;;;;;;11.67;9.33;;;;;-147.17;100.00;49698.38;5018052;28;51152;-58
2021/11/14 08:50:06;;;;;;;;;8.00;7.00;;;;;-147.17;100.00;49690.50;5022288;28;51853;-58
2021/11/14 08:52:32;;;;;;;;;10.33;10.33;;;;;-147.17;100.00;49690.50;5017783;28;51469;-57
2021/11/14 08:54:57;;;;;;;;;8.00;7.67;;;;;-147.17;100.00;49727.91;5026204;28;51264;-62
2021/11/14 08:57:23;;;;;;;;;8.00;7.00;;;;;-147.17;100.00;49692.47;5032527;28;51296;-58
2021/11/14 08:59:49;;;;;;;;;9.00;7.67;;;;;-147.17;100.00;49668.84;5017211;28;51566;-58
2021/11/14 09:02:16;;;;;;;;;7.67;7.00;;;;;-147.17;100.00;49676.72;5025353;28;51313;-59
2021/11/14 09:04:42;;;;;;;;;8.00;8.00;;;;;-147.17;100.00;49712.16;5020084;28;51162;-58
2021/11/14 09:07:07;;;;;;;;;9.00;9.00;;;;;-147.17;100.00;49674.75;5021734;28;51314;-58
2021/11/14 09:09:34;;;;;;;;;9.00;9.00;;;;;-147.17;100.00;49649.19;5018586;28;51808;-59
2021/11/14 09:11:59;;;;;;;;;8.67;8.33;;;;;-147.17;100.00;49694.44;5020379;28;51293;-59
2021/11/14 09:14:25;;;;;;;;;8.00;7.00;;;;;-147.17;100.00;49678.69;5031073;28;51043;-58
2021/11/14 09:16:51;;;;;;;;;7.00;6.00;;;;;-147.17;100.00;49708.22;5021915;28;51011;-58
2021/11/14 09:19:18;;;;;;;;;8.00;7.00;;;;;-147.17;100.00;49676.72;5013958;28;51990;-57
2021/11/14 09:21:43;;;;;;;;;10.00;9.00;;;;;-147.17;100.00;49761.38;5029020;28;51288;-58
2021/11/14 09:24:09;;;;;;;;;9.67;8.67;;;;;-147.17;100.00;49769.25;5021351;28;50995;-58
2021/11/14 09:26:36;;;;;;;;;9.33;8.33;;;;;-147.17;100.00;49725.94;5014082;28;50895;-57
2021/11/14 09:29:03;;;;;;;;;6.00;6.00;;;;;-147.17;100.00;49710.19;5032535;28;51788;-57
2021/11/14 09:31:29;;;;;;;;;8.00;8.00;;;;;-147.17;100.00;49741.69;5027597;28;51176;-56
2021/11/14 09:33:57;;;;;;;;;5.00;3.00;;;;;-147.17;100.00;49723.97;5033290;28;51084;-57
2021/11/14 09:36:23;;;;;;;;;8.00;7.33;;;;;-147.17;100.00;49745.63;5030601;28;51145;-57
2021/11/14 09:38:48;;;;;;;;;4.67;4.67;;;;;-147.17;100.00;49722.00;5029610;28;51074;-57
2021/11/14 09:41:14;;;;;;;;;5.00;5.00;;;;;-147.17;100.00;49682.63;5023323;28;50995;-56
2021/11/14 09:43:40;;;;;;;;;7.00;6.00;;;;;-147.17;100.00;49672.78;5032274;28;51226;-58
2021/11/14 09:46:06;;;;;;;;;7.33;7.33;;;;;-147.17;100.00;49623.59;5019798;28;51492;-58
2021/11/14 09:48:32;;;;;;;;;5.33;5.33;;;;;-147.17;100.00;49702.31;5029434;28;51989;-58
2021/11/14 09:50:59;;;;;;;;;8.00;6.00;;;;;-147.17;100.00;49763.34;5025539;28;51497;-57
2021/11/14 09:53:31;;;;;;;;;5.33;5.33;;;;;-147.17;100.00;49737.75;5020410;28;51023;-58
2021/11/14 09:56:00;;;;;;;;;5.00;5.00;;;;;-147.17;100.00;49714.13;5016838;28;51205;-58
2021/11/14 09:58:25;;;;;;;;;5.00;5.00;;;;;-147.17;100.00;49751.53;5029212;28;51883;-59
2021/11/14 10:00:51;;;;;;;;;7.00;7.00;;;;;-147.17;100.00;49710.19;5027149;28;51168;-59
2021/11/14 10:03:20;;;;;;;;;9.67;9.67;;;;;-147.17;100.00;49708.22;5038981;28;51234;-58
2021/11/14 10:05:48;;;;;;;;;8.33;8.33;;;;;-147.17;100.00;49733.81;5023312;28;51463;-59
2021/11/14 10:08:14;;;;;;;;;9.00;9.00;;;;;-147.17;100.00;49714.13;5017083;28;51785;-59
2021/11/14 10:10:48;;;;;;;;;10.00;8.00;;;;;-147.17;100.00;49716.09;5021671;28;51223;-59
2021/11/14 10:13:15;;;;;;;;;10.00;10.00;;;;;-147.17;100.00;49678.69;5021574;28;51118;-58
2021/11/14 10:15:42;;;;;;;;;11.00;10.00;;;;;-147.17;100.00;49716.09;5024432;28;51342;-59
2021/11/14 10:18:08;;;;;;;;;10.67;10.00;;;;;-147.17;100.00;49678.69;5021793;28;51261;-59
2021/11/14 10:20:36;;;;;;;;;12.33;12.33;;;;;-147.17;100.00;49670.81;5024124;28;51162;-58
2021/11/14 10:23:11;;;;;;;;;9.33;9.33;;;;;-147.17;100.00;49684.59;5017521;28;51395;-59
2021/11/14 10:25:37;;;;;;;;;9.00;9.00;;;;;-147.17;100.00;49659.03;5023757;28;51213;-60
2021/11/14 10:28:05;;;;;;;;;11.33;10.00;;;;;-147.17;100.00;49672.78;5020338;28;51216;-58
2021/11/14 10:30:36;;;;;;;;;11.67;9.33;;;;;-147.17;100.00;49694.44;5045365;28;51100;-59
2021/11/14 10:33:05;;;;;;;;;16.00;13.00;;;;;-147.17;100.00;49643.28;5025108;28;51404;-58
2021/11/14 10:35:32;;;;;;;;;11.00;11.00;;;;;-147.17;100.00;49714.13;5022935;28;51510;-58
2021/11/14 10:38:19;;;;;;;;;13.00;12.33;;;;;-147.17;100.00;49676.72;5020581;28;51821;-58
2021/11/14 10:40:48;;;;;;;;;11.67;10.00;;;;;-147.17;100.00;49664.91;5022410;28;51060;-59
2021/11/14 10:43:16;;;;;;;;;14.67;12.33;;;;;-147.17;100.00;49666.88;5017810;28;51212;-57
2021/11/14 10:45:42;;;;;;;;;14.00;13.67;;;;;-147.17;100.00;49700.34;5027677;28;51042;-58
2021/11/14 10:48:11;;;;;;;;;15.33;14.33;;;;;-147.17;100.00;49676.72;5023603;28;52013;-60
2021/11/14 10:50:41;;;;;;;;;13.67;11.00;;;;;-147.17;100.00;49688.53;5021334;28;52971;-58
2021/11/14 10:53:10;;;;;;;;;14.00;12.33;;;;;-147.17;100.00;49678.69;5027217;28;52225;-60
2021/11/14 10:55:44;;;;;;;;;15.00;13.00;;;;;-147.17;100.00;49682.63;5019970;28;51230;-60
2021/11/14 10:58:11;;;;;;;;;14.67;14.67;;;;;-147.17;100.00;49651.16;5019806;28;51741;-60
2021/11/14 11:00:38;;;;;;;;;13.67;12.33;;;;;-147.17;100.00;49643.28;5020623;28;51077;-59